sensor_id;sensor_type;location;lat;lon;timestamp;pressure;altitude;pressure_sealevel;temperature;humidity
71778;BME280;59609;52.430;4.668;2022-09-09T00:04:37;100812.78;;;15.84;100.00
71778;BME280;59609;52.430;4.668;2022-09-09T00:15:19;100805.34;;;15.64;100.00
71778;BME280;59609;52.430;4.668;2022-09-09T00:17:55;100800.66;;;15.64;100.00
71778;BME280;59609;52.430;4.668;2022-09-09T00:20:36;100804.19;;;15.58;100.00
71778;BME280;59609;52.430;4.668;2022-09-09T00:23:22;100810.16;;;15.55;100.00
71778;BME280;59609;52.430;4.668;2022-09-09T00:26:11;100809.50;;;15.53;100.00
71778;BME280;59609;52.430;4.668;2022-09-09T00:28:55;100809.91;;;15.50;100.00
71778;BME280;59609;52.430;4.668;2022-09-09T00:31:27;100812.47;;;15.52;100.00
71778;BME280;59609;52.430;4.668;2022-09-09T00:33:55;100814.78;;;15.48;100.00
71778;BME280;59609;52.430;4.668;2022-09-09T00:36:24;100813.25;;;15.45;100.00
71778;BME280;59609;52.430;4.668;2022-09-09T00:38:58;100813.88;;;15.41;100.00
71778;BME280;59609;52.430;4.668;2022-09-09T00:45:15;100812.53;;;15.37;100.00
71778;BME280;59609;52.430;4.668;2022-09-09T00:47:40;100805.66;;;15.33;100.00
71778;BME280;59609;52.430;4.668;2022-09-09T00:50:13;100807.78;;;15.31;100.00
71778;BME280;59609;52.430;4.668;2022-09-09T00:55:23;100807.50;;;15.26;100.00
71778;BME280;59609;52.430;4.668;2022-09-09T00:57:53;100805.31;;;15.21;100.00
71778;BME280;59609;52.430;4.668;2022-09-09T01:11:01;100794.94;;;15.09;100.00
71778;BME280;59609;52.430;4.668;2022-09-09T01:13:35;100803.94;;;15.11;100.00
71778;BME280;59609;52.430;4.668;2022-09-09T01:16:03;100803.66;;;15.06;100.00
71778;BME280;59609;52.430;4.668;2022-09-09T01:18:33;100799.56;;;15.02;100.00
71778;BME280;59609;52.430;4.668;2022-09-09T01:26:49;100791.16;;;14.95;100.00
71778;BME280;59609;52.430;4.668;2022-09-09T01:29:19;100794.63;;;14.97;100.00
71778;BME280;59609;52.430;4.668;2022-09-09T01:35:02;100790.03;;;14.89;100.00
71778;BME280;59609;52.430;4.668;2022-09-09T01:37:28;100790.84;;;14.83;100.00
71778;BME280;59609;52.430;4.668;2022-09-09T01:39:53;100796.16;;;14.85;100.00
71778;BME280;59609;52.430;4.668;2022-09-09T01:42:19;100804.41;;;14.78;100.00
71778;BME280;59609;52.430;4.668;2022-09-09T01:44:44;100802.50;;;14.79;100.00
71778;BME280;59609;52.430;4.668;2022-09-09T01:47:09;100791.53;;;14.71;100.00
71778;BME280;59609;52.430;4.668;2022-09-09T01:49:35;100793.91;;;14.74;100.00
71778;BME280;59609;52.430;4.668;2022-09-09T01:52:00;100794.78;;;14.74;100.00
71778;BME280;59609;52.430;4.668;2022-09-09T01:54:28;100791.78;;;14.76;100.00
71778;BME280;59609;52.430;4.668;2022-09-09T01:57:23;100784.53;;;14.75;100.00
71778;BME280;59609;52.430;4.668;2022-09-09T02:00:12;100779.59;;;14.70;100.00
71778;BME280;59609;52.430;4.668;2022-09-09T02:03:05;100781.56;;;14.76;100.00
71778;BME280;59609;52.430;4.668;2022-09-09T02:05:36;100775.44;;;14.81;100.00
71778;BME280;59609;52.430;4.668;2022-09-09T02:08:07;100773.03;;;14.78;100.00
71778;BME280;59609;52.430;4.668;2022-09-09T02:10:44;100767.41;;;14.71;100.00
71778;BME280;59609;52.430;4.668;2022-09-09T02:13:13;100778.72;;;14.70;100.00
71778;BME280;59609;52.430;4.668;2022-09-09T02:15:53;100779.97;;;14.67;100.00
71778;BME280;59609;52.430;4.668;2022-09-09T02:18:28;100767.34;;;14.65;100.00
71778;BME280;59609;52.430;4.668;2022-09-09T02:20:56;100774.81;;;14.64;100.00
71778;BME280;59609;52.430;4.668;2022-09-09T02:23:23;100775.00;;;14.63;100.00
71778;BME280;59609;52.430;4.668;2022-09-09T02:25:50;100759.16;;;14.57;100.00
71778;BME280;59609;52.430;4.668;2022-09-09T02:28:19;100771.69;;;14.53;100.00
71778;BME280;59609;52.430;4.668;2022-09-09T02:30:48;100771.19;;;14.49;100.00
71778;BME280;59609;52.430;4.668;2022-09-09T02:33:27;100765.41;;;14.44;100.00
71778;BME280;59609;52.430;4.668;2022-09-09T02:35:55;100764.06;;;14.40;100.00
71778;BME280;59609;52.430;4.668;2022-09-09T02:38:29;100765.09;;;14.39;100.00
71778;BME280;59609;52.430;4.668;2022-09-09T02:40:57;100759.09;;;14.35;100.00
71778;BME280;59609;52.430;4.668;2022-09-09T02:43:23;100752.28;;;14.38;100.00
71778;BME280;59609;52.430;4.668;2022-09-09T02:48:55;100757.19;;;14.36;100.00
71778;BME280;59609;52.430;4.668;2022-09-09T02:51:45;100747.13;;;14.35;100.00
71778;BME280;59609;52.430;4.668;2022-09-09T02:54:38;100755.28;;;14.36;100.00
71778;BME280;59609;52.430;4.668;2022-09-09T02:57:21;100756.66;;;14.32;100.00
71778;BME280;59609;52.430;4.668;2022-09-09T02:59:48;100749.13;;;14.26;100.00
71778;BME280;59609;52.430;4.668;2022-09-09T03:02:14;100756.09;;;14.22;100.00
71778;BME280;59609;52.430;4.668;2022-09-09T03:04:41;100758.69;;;14.24;100.00
71778;BME280;59609;52.430;4.668;2022-09-09T03:07:09;100748.66;;;14.23;100.00
71778;BME280;59609;52.430;4.668;2022-09-09T03:09:35;100751.44;;;14.23;100.00
71778;BME280;59609;52.430;4.668;2022-09-09T03:12:00;100741.59;;;14.20;100.00
71778;BME280;59609;52.430;4.668;2022-09-09T03:14:26;100740.25;;;14.16;100.00
71778;BME280;59609;52.430;4.668;2022-09-09T03:16:52;100737.97;;;14.20;100.00
71778;BME280;59609;52.430;4.668;2022-09-09T03:19:18;100737.28;;;14.18;100.00
71778;BME280;59609;52.430;4.668;2022-09-09T03:21:44;100739.41;;;14.16;100.00
71778;BME280;59609;52.430;4.668;2022-09-09T03:24:10;100736.22;;;14.19;100.00
71778;BME280;59609;52.430;4.668;2022-09-09T03:26:35;100740.06;;;14.18;100.00
71778;BME280;59609;52.430;4.668;2022-09-09T03:29:03;100738.13;;;14.18;100.00
71778;BME280;59609;52.430;4.668;2022-09-09T03:31:28;100746.28;;;14.20;100.00
71778;BME280;59609;52.430;4.668;2022-09-09T03:33:56;100726.59;;;14.15;100.00
71778;BME280;59609;52.430;4.668;2022-09-09T03:36:23;100738.81;;;14.20;100.00
71778;BME280;59609;52.430;4.668;2022-09-09T03:38:48;100729.25;;;14.23;100.00
71778;BME280;59609;52.430;4.668;2022-09-09T03:41:14;100717.88;;;14.18;100.00
71778;BME280;59609;52.430;4.668;2022-09-09T03:43:39;100714.66;;;14.14;100.00
71778;BME280;59609;52.430;4.668;2022-09-09T03:46:05;100715.88;;;14.12;100.00
71778;BME280;59609;52.430;4.668;2022-09-09T03:48:30;100729.56;;;14.13;100.00
71778;BME280;59609;52.430;4.668;2022-09-09T03:50:56;100722.69;;;14.09;100.00
71778;BME280;59609;52.430;4.668;2022-09-09T03:53:24;100714.19;;;14.11;100.00
71778;BME280;59609;52.430;4.668;2022-09-09T03:55:51;100722.88;;;14.08;100.00
71778;BME280;59609;52.430;4.668;2022-09-09T03:58:20;100721.16;;;14.07;100.00
71778;BME280;59609;52.430;4.668;2022-09-09T04:00:54;100729.00;;;14.03;100.00
71778;BME280;59609;52.430;4.668;2022-09-09T04:03:20;100718.78;;;14.04;100.00
71778;BME280;59609;52.430;4.668;2022-09-09T04:05:48;100718.56;;;14.05;100.00
71778;BME280;59609;52.430;4.668;2022-09-09T04:08:13;100717.31;;;14.08;100.00
71778;BME280;59609;52.430;4.668;2022-09-09T04:10:39;100707.31;;;14.07;100.00
71778;BME280;59609;52.430;4.668;2022-09-09T04:13:04;100714.56;;;14.08;100.00
71778;BME280;59609;52.430;4.668;2022-09-09T04:15:31;100712.84;;;14.07;100.00
71778;BME280;59609;52.430;4.668;2022-09-09T04:17:56;100700.69;;;14.08;100.00
71778;BME280;59609;52.430;4.668;2022-09-09T04:20:22;100696.41;;;14.05;100.00
71778;BME280;59609;52.430;4.668;2022-09-09T04:22:48;100714.09;;;14.04;100.00
71778;BME280;59609;52.430;4.668;2022-09-09T04:25:13;100704.25;;;14.02;100.00
71778;BME280;59609;52.430;4.668;2022-09-09T04:27:40;100702.56;;;14.01;100.00
71778;BME280;59609;52.430;4.668;2022-09-09T04:30:06;100699.38;;;14.04;100.00
71778;BME280;59609;52.430;4.668;2022-09-09T04:32:35;100696.16;;;14.00;100.00
71778;BME280;59609;52.430;4.668;2022-09-09T04:35:02;100695.38;;;13.91;100.00
71778;BME280;59609;52.430;4.668;2022-09-09T04:37:27;100694.34;;;13.92;100.00
71778;BME280;59609;52.430;4.668;2022-09-09T04:39:53;100697.00;;;13.86;100.00
71778;BME280;59609;52.430;4.668;2022-09-09T04:42:19;100701.41;;;13.80;100.00
71778;BME280;59609;52.430;4.668;2022-09-09T04:44:44;100703.31;;;13.80;100.00
71778;BME280;59609;52.430;4.668;2022-09-09T04:47:10;100705.63;;;13.76;100.00
71778;BME280;59609;52.430;4.668;2022-09-09T04:49:35;100704.25;;;13.72;100.00
71778;BME280;59609;52.430;4.668;2022-09-09T04:52:02;100706.66;;;13.75;100.00
71778;BME280;59609;52.430;4.668;2022-09-09T04:54:28;100698.56;;;13.74;100.00
71778;BME280;59609;52.430;4.668;2022-09-09T04:56:53;100679.47;;;13.64;100.00
71778;BME280;59609;52.430;4.668;2022-09-09T04:59:20;100700.06;;;13.76;100.00
71778;BME280;59609;52.430;4.668;2022-09-09T05:01:45;100696.63;;;13.74;100.00
71778;BME280;59609;52.430;4.668;2022-09-09T05:04:10;100700.25;;;13.75;100.00
71778;BME280;59609;52.430;4.668;2022-09-09T05:06:36;100699.38;;;13.74;100.00
71778;BME280;59609;52.430;4.668;2022-09-09T05:09:02;100695.97;;;13.72;100.00
71778;BME280;59609;52.430;4.668;2022-09-09T05:11:30;100685.53;;;13.74;100.00
71778;BME280;59609;52.430;4.668;2022-09-09T05:13:57;100686.63;;;13.73;100.00
71778;BME280;59609;52.430;4.668;2022-09-09T05:16:22;100690.25;;;13.74;100.00
71778;BME280;59609;52.430;4.668;2022-09-09T05:18:48;100689.16;;;13.75;100.00
71778;BME280;59609;52.430;4.668;2022-09-09T05:21:18;100695.00;;;13.80;100.00
71778;BME280;59609;52.430;4.668;2022-09-09T05:23:45;100696.75;;;13.81;100.00
71778;BME280;59609;52.430;4.668;2022-09-09T05:26:16;100691.38;;;13.79;100.00
71778;BME280;59609;52.430;4.668;2022-09-09T05:28:42;100697.56;;;13.81;100.00
71778;BME280;59609;52.430;4.668;2022-09-09T05:31:09;100678.97;;;13.75;100.00
71778;BME280;59609;52.430;4.668;2022-09-09T05:33:36;100686.59;;;13.88;100.00
71778;BME280;59609;52.430;4.668;2022-09-09T05:36:07;100676.97;;;13.84;100.00
71778;BME280;59609;52.430;4.668;2022-09-09T05:38:33;100672.94;;;13.86;100.00
71778;BME280;59609;52.430;4.668;2022-09-09T05:41:00;100684.69;;;13.88;100.00
71778;BME280;59609;52.430;4.668;2022-09-09T05:43:28;100685.53;;;13.89;100.00
71778;BME280;59609;52.430;4.668;2022-09-09T05:46:05;100680.09;;;13.96;100.00
71778;BME280;59609;52.430;4.668;2022-09-09T05:48:32;100692.69;;;13.98;100.00
71778;BME280;59609;52.430;4.668;2022-09-09T05:50:59;100688.97;;;14.06;100.00
71778;BME280;59609;52.430;4.668;2022-09-09T05:53:25;100696.88;;;14.09;100.00
71778;BME280;59609;52.430;4.668;2022-09-09T05:56:01;100686.97;;;14.14;100.00
71778;BME280;59609;52.430;4.668;2022-09-09T05:58:29;100686.75;;;14.16;100.00
71778;BME280;59609;52.430;4.668;2022-09-09T06:01:09;100682.34;;;14.21;100.00
71778;BME280;59609;52.430;4.668;2022-09-09T06:03:35;100675.81;;;14.29;100.00
71778;BME280;59609;52.430;4.668;2022-09-09T06:06:04;100671.06;;;14.37;100.00
71778;BME280;59609;52.430;4.668;2022-09-09T06:08:37;100684.06;;;14.37;100.00
71778;BME280;59609;52.430;4.668;2022-09-09T06:11:12;100681.38;;;14.43;100.00
71778;BME280;59609;52.430;4.668;2022-09-09T06:13:38;100695.22;;;14.43;100.00
71778;BME280;59609;52.430;4.668;2022-09-09T06:16:09;100696.44;;;14.56;100.00
71778;BME280;59609;52.430;4.668;2022-09-09T06:18:37;100697.44;;;14.69;100.00
71778;BME280;59609;52.430;4.668;2022-09-09T06:21:04;100697.72;;;14.74;100.00
71778;BME280;59609;52.430;4.668;2022-09-09T06:23:32;100696.63;;;14.75;100.00
71778;BME280;59609;52.430;4.668;2022-09-09T06:28:34;100708.94;;;14.87;100.00
71778;BME280;59609;52.430;4.668;2022-09-09T06:31:01;100703.00;;;14.90;100.00
71778;BME280;59609;52.430;4.668;2022-09-09T06:33:30;100701.16;;;14.98;100.00
71778;BME280;59609;52.430;4.668;2022-09-09T06:35:56;100700.59;;;15.09;100.00
71778;BME280;59609;52.430;4.668;2022-09-09T06:38:22;100696.75;;;15.31;100.00
71778;BME280;59609;52.430;4.668;2022-09-09T06:40:54;100695.97;;;15.43;100.00
71778;BME280;59609;52.430;4.668;2022-09-09T06:43:21;100707.16;;;15.50;100.00
71778;BME280;59609;52.430;4.668;2022-09-09T06:46:01;100703.34;;;15.51;100.00
71778;BME280;59609;52.430;4.668;2022-09-09T06:48:28;100697.31;;;15.48;100.00
71778;BME280;59609;52.430;4.668;2022-09-09T06:51:04;100706.88;;;15.45;100.00
71778;BME280;59609;52.430;4.668;2022-09-09T06:53:30;100702.94;;;15.33;100.00
71778;BME280;59609;52.430;4.668;2022-09-09T06:55:58;100694.66;;;15.39;100.00
71778;BME280;59609;52.430;4.668;2022-09-09T06:58:24;100703.22;;;15.44;100.00
71778;BME280;59609;52.430;4.668;2022-09-09T07:00:49;100702.84;;;15.48;100.00
71778;BME280;59609;52.430;4.668;2022-09-09T07:03:14;100694.34;;;15.49;100.00
71778;BME280;59609;52.430;4.668;2022-09-09T07:05:40;100699.41;;;15.45;100.00
71778;BME280;59609;52.430;4.668;2022-09-09T07:08:05;100693.84;;;15.45;100.00
71778;BME280;59609;52.430;4.668;2022-09-09T07:10:31;100687.44;;;15.45;100.00
71778;BME280;59609;52.430;4.668;2022-09-09T07:12:56;100688.81;;;15.56;100.00
71778;BME280;59609;52.430;4.668;2022-09-09T07:15:22;100687.00;;;15.69;100.00
71778;BME280;59609;52.430;4.668;2022-09-09T07:17:48;100688.72;;;15.70;100.00
71778;BME280;59609;52.430;4.668;2022-09-09T07:20:14;100691.09;;;15.73;100.00
71778;BME280;59609;52.430;4.668;2022-09-09T07:22:40;100682.94;;;15.72;100.00
71778;BME280;59609;52.430;4.668;2022-09-09T07:25:06;100680.63;;;15.75;100.00
71778;BME280;59609;52.430;4.668;2022-09-09T07:27:31;100697.09;;;15.77;100.00
71778;BME280;59609;52.430;4.668;2022-09-09T07:29:56;100674.66;;;15.78;100.00
71778;BME280;59609;52.430;4.668;2022-09-09T07:32:22;100670.63;;;15.81;100.00
71778;BME280;59609;52.430;4.668;2022-09-09T07:34:48;100687.63;;;16.06;100.00
71778;BME280;59609;52.430;4.668;2022-09-09T07:37:15;100676.56;;;16.19;100.00
71778;BME280;59609;52.430;4.668;2022-09-09T07:39:41;100686.22;;;16.23;100.00
71778;BME280;59609;52.430;4.668;2022-09-09T07:42:07;100679.19;;;16.33;99.76
71778;BME280;59609;52.430;4.668;2022-09-09T07:44:36;100686.50;;;16.41;98.79
71778;BME280;59609;52.430;4.668;2022-09-09T07:47:04;100678.94;;;16.22;99.56
71778;BME280;59609;52.430;4.668;2022-09-09T07:49:29;100685.19;;;16.30;99.66
71778;BME280;59609;52.430;4.668;2022-09-09T07:51:55;100681.94;;;16.20;100.00
71778;BME280;59609;52.430;4.668;2022-09-09T07:54:20;100688.16;;;16.29;99.79
71778;BME280;59609;52.430;4.668;2022-09-09T07:56:48;100682.22;;;16.45;99.37
71778;BME280;59609;52.430;4.668;2022-09-09T07:59:15;100683.31;;;16.51;99.30
71778;BME280;59609;52.430;4.668;2022-09-09T08:01:43;100682.72;;;16.55;98.82
71778;BME280;59609;52.430;4.668;2022-09-09T08:04:15;100680.78;;;16.56;99.42
71778;BME280;59609;52.430;4.668;2022-09-09T08:06:46;100677.41;;;16.73;98.40
71778;BME280;59609;52.430;4.668;2022-09-09T08:09:12;100693.41;;;16.58;97.35
71778;BME280;59609;52.430;4.668;2022-09-09T08:11:39;100678.25;;;16.61;97.51
71778;BME280;59609;52.430;4.668;2022-09-09T08:14:06;100682.28;;;16.58;97.74
71778;BME280;59609;52.430;4.668;2022-09-09T08:16:34;100695.88;;;16.87;96.46
71778;BME280;59609;52.430;4.668;2022-09-09T08:19:02;100690.31;;;17.01;95.56
71778;BME280;59609;52.430;4.668;2022-09-09T08:21:30;100686.00;;;16.91;94.86
71778;BME280;59609;52.430;4.668;2022-09-09T08:23:58;100686.84;;;16.92;96.18
71778;BME280;59609;52.430;4.668;2022-09-09T08:26:26;100696.06;;;16.92;95.30
71778;BME280;59609;52.430;4.668;2022-09-09T08:28:55;100693.06;;;16.74;93.95
71778;BME280;59609;52.430;4.668;2022-09-09T08:31:34;100693.91;;;16.81;95.47
71778;BME280;59609;52.430;4.668;2022-09-09T08:34:01;100690.94;;;17.03;95.04
71778;BME280;59609;52.430;4.668;2022-09-09T08:36:28;100694.78;;;17.02;94.85
71778;BME280;59609;52.430;4.668;2022-09-09T08:38:56;100685.63;;;17.14;93.86
71778;BME280;59609;52.430;4.668;2022-09-09T08:57:51;100689.66;;;17.38;91.83
71778;BME280;59609;52.430;4.668;2022-09-09T09:00:18;100694.16;;;17.13;92.08
71778;BME280;59609;52.430;4.668;2022-09-09T09:06:04;100673.59;;;17.66;88.89
71778;BME280;59609;52.430;4.668;2022-09-09T09:08:45;100715.38;;;17.53;89.87
71778;BME280;59609;52.430;4.668;2022-09-09T09:11:11;100705.28;;;17.52;90.44
71778;BME280;59609;52.430;4.668;2022-09-09T09:14:07;100702.75;;;17.44;92.03
71778;BME280;59609;52.430;4.668;2022-09-09T09:19:11;100710.00;;;17.12;91.58
71778;BME280;59609;52.430;4.668;2022-09-09T09:21:44;100724.16;;;17.11;91.66
71778;BME280;59609;52.430;4.668;2022-09-09T09:27:10;100706.16;;;17.20;91.52
71778;BME280;59609;52.430;4.668;2022-09-09T09:29:38;100718.59;;;17.24;91.73
71778;BME280;59609;52.430;4.668;2022-09-09T09:32:07;100723.50;;;17.09;91.37
71778;BME280;59609;52.430;4.668;2022-09-09T09:34:36;100715.38;;;17.01;91.42
71778;BME280;59609;52.430;4.668;2022-09-09T09:37:01;100718.75;;;16.89;92.78
71778;BME280;59609;52.430;4.668;2022-09-09T09:39:28;100727.34;;;17.01;92.60
71778;BME280;59609;52.430;4.668;2022-09-09T09:41:54;100725.44;;;17.21;92.63
71778;BME280;59609;52.430;4.668;2022-09-09T09:46:51;100716.00;;;17.55;89.62
71778;BME280;59609;52.430;4.668;2022-09-09T09:49:16;100720.09;;;17.66;88.66
71778;BME280;59609;52.430;4.668;2022-09-09T09:51:42;100717.31;;;17.59;89.82
71778;BME280;59609;52.430;4.668;2022-09-09T09:54:20;100709.19;;;17.71;89.65
71778;BME280;59609;52.430;4.668;2022-09-09T09:56:48;100720.31;;;17.77;89.37
71778;BME280;59609;52.430;4.668;2022-09-09T10:01:46;100713.91;;;17.37;91.61
71778;BME280;59609;52.430;4.668;2022-09-09T10:04:17;100712.38;;;17.28;94.83
71778;BME280;59609;52.430;4.668;2022-09-09T10:06:45;100705.47;;;17.96;97.09
71778;BME280;59609;52.430;4.668;2022-09-09T10:09:30;100705.56;;;18.34;92.96
71778;BME280;59609;52.430;4.668;2022-09-09T10:17:44;100707.78;;;18.13;91.40
71778;BME280;59609;52.430;4.668;2022-09-09T10:23:29;100701.91;;;18.34;89.71
71778;BME280;59609;52.430;4.668;2022-09-09T10:27:04;100704.00;;;18.45;89.01
71778;BME280;59609;52.430;4.668;2022-09-09T10:29:13;100709.34;;;18.60;87.65
71778;BME280;59609;52.430;4.668;2022-09-09T10:32:00;100702.25;;;17.99;89.43
71778;BME280;59609;52.430;4.668;2022-09-09T10:37:43;100710.81;;;18.11;89.40
71778;BME280;59609;52.430;4.668;2022-09-09T10:40:37;100709.53;;;18.00;89.19
71778;BME280;59609;52.430;4.668;2022-09-09T10:51:53;100695.09;;;18.74;84.83
71778;BME280;59609;52.430;4.668;2022-09-09T10:57:03;100688.44;;;18.69;84.29
71778;BME280;59609;52.430;4.668;2022-09-09T10:59:36;100695.53;;;18.71;83.90
71778;BME280;59609;52.430;4.668;2022-09-09T11:02:16;100695.88;;;19.13;82.38
71778;BME280;59609;52.430;4.668;2022-09-09T11:07:25;100702.03;;;18.59;84.58
71778;BME280;59609;52.430;4.668;2022-09-09T11:09:56;100694.22;;;18.74;85.45
71778;BME280;59609;52.430;4.668;2022-09-09T11:12:23;100688.19;;;18.77;84.77
71778;BME280;59609;52.430;4.668;2022-09-09T11:15:01;100692.59;;;18.60;85.49
71778;BME280;59609;52.430;4.668;2022-09-09T11:17:44;100718.84;;;18.39;87.71
71778;BME280;59609;52.430;4.668;2022-09-09T11:20:13;100688.69;;;18.10;90.23
71778;BME280;59609;52.430;4.668;2022-09-09T11:22:57;100704.41;;;17.97;91.60
71778;BME280;59609;52.430;4.668;2022-09-09T11:25:32;100702.72;;;17.77;92.09
71778;BME280;59609;52.430;4.668;2022-09-09T11:28:17;100703.81;;;17.36;96.17
71778;BME280;59609;52.430;4.668;2022-09-09T11:44:35;100697.34;;;17.88;96.60
71778;BME280;59609;52.430;4.668;2022-09-09T11:47:00;100696.72;;;17.86;93.78
71778;BME280;59609;52.430;4.668;2022-09-09T11:49:28;100691.97;;;17.93;94.05
71778;BME280;59609;52.430;4.668;2022-09-09T11:51:54;100689.41;;;17.85;91.97
71778;BME280;59609;52.430;4.668;2022-09-09T11:54:33;100697.63;;;18.25;91.31
71778;BME280;59609;52.430;4.668;2022-09-09T11:57:35;100689.03;;;18.33;89.55
71778;BME280;59609;52.430;4.668;2022-09-09T12:00:01;100692.72;;;18.27;89.28
71778;BME280;59609;52.430;4.668;2022-09-09T12:02:28;100705.16;;;18.31;88.88
71778;BME280;59609;52.430;4.668;2022-09-09T12:07:38;100682.78;;;19.13;84.29
71778;BME280;59609;52.430;4.668;2022-09-09T12:12:37;100692.06;;;18.76;85.09
71778;BME280;59609;52.430;4.668;2022-09-09T12:17:45;100686.41;;;19.45;82.54
71778;BME280;59609;52.430;4.668;2022-09-09T12:22:55;100692.75;;;19.02;82.37
71778;BME280;59609;52.430;4.668;2022-09-09T12:34:13;100690.72;;;18.85;84.60
71778;BME280;59609;52.430;4.668;2022-09-09T12:36:40;100680.94;;;18.69;84.37
71778;BME280;59609;52.430;4.668;2022-09-09T12:39:44;100687.59;;;18.68;85.88
71778;BME280;59609;52.430;4.668;2022-09-09T12:42:19;100683.38;;;18.90;84.97
71778;BME280;59609;52.430;4.668;2022-09-09T12:44:59;100686.16;;;18.59;89.70
71778;BME280;59609;52.430;4.668;2022-09-09T12:47:37;100691.31;;;18.05;90.43
71778;BME280;59609;52.430;4.668;2022-09-09T12:50:19;100691.16;;;17.73;93.28
71778;BME280;59609;52.430;4.668;2022-09-09T12:52:46;100695.00;;;17.79;94.82
71778;BME280;59609;52.430;4.668;2022-09-09T12:55:18;100696.25;;;17.89;95.09
71778;BME280;59609;52.430;4.668;2022-09-09T12:57:44;100700.84;;;17.64;97.11
71778;BME280;59609;52.430;4.668;2022-09-09T13:00:23;100693.72;;;17.68;98.53
71778;BME280;59609;52.430;4.668;2022-09-09T13:02:54;100690.22;;;18.06;97.89
71778;BME280;59609;52.430;4.668;2022-09-09T13:05:23;100692.50;;;18.22;96.13
71778;BME280;59609;52.430;4.668;2022-09-09T13:07:49;100687.53;;;18.37;94.83
71778;BME280;59609;52.430;4.668;2022-09-09T13:10:22;100691.19;;;18.37;94.75
71778;BME280;59609;52.430;4.668;2022-09-09T13:12:49;100695.88;;;18.43;93.09
71778;BME280;59609;52.430;4.668;2022-09-09T13:15:21;100706.38;;;18.41;92.75
71778;BME280;59609;52.430;4.668;2022-09-09T13:18:04;100706.34;;;18.48;92.21
71778;BME280;59609;52.430;4.668;2022-09-09T13:20:31;100696.16;;;18.22;92.49
71778;BME280;59609;52.430;4.668;2022-09-09T13:22:57;100699.50;;;18.44;92.53
71778;BME280;59609;52.430;4.668;2022-09-09T13:25:26;100696.47;;;18.45;92.33
71778;BME280;59609;52.430;4.668;2022-09-09T13:28:33;100696.66;;;18.64;92.76
71778;BME280;59609;52.430;4.668;2022-09-09T13:30:39;100693.06;;;18.43;92.94
71778;BME280;59609;52.430;4.668;2022-09-09T13:36:17;100691.22;;;18.24;93.53
71778;BME280;59609;52.430;4.668;2022-09-09T13:38:53;100679.41;;;18.29;93.40
71778;BME280;59609;52.430;4.668;2022-09-09T13:41:22;100688.59;;;18.36;92.19
71778;BME280;59609;52.430;4.668;2022-09-09T13:43:49;100685.91;;;18.10;93.01
71778;BME280;59609;52.430;4.668;2022-09-09T13:46:37;100684.00;;;18.10;91.16
71778;BME280;59609;52.430;4.668;2022-09-09T13:51:45;100689.47;;;18.36;93.17
71778;BME280;59609;52.430;4.668;2022-09-09T13:54:13;100693.56;;;18.34;93.51
71778;BME280;59609;52.430;4.668;2022-09-09T13:56:40;100690.94;;;18.39;93.01
71778;BME280;59609;52.430;4.668;2022-09-09T13:59:11;100692.88;;;18.38;92.79
71778;BME280;59609;52.430;4.668;2022-09-09T14:01:36;100694.03;;;18.24;92.32
71778;BME280;59609;52.430;4.668;2022-09-09T14:04:02;100686.75;;;18.17;93.24
71778;BME280;59609;52.430;4.668;2022-09-09T14:06:29;100689.81;;;17.95;94.21
71778;BME280;59609;52.430;4.668;2022-09-09T14:08:54;100700.97;;;17.95;96.58
71778;BME280;59609;52.430;4.668;2022-09-09T14:11:20;100707.63;;;18.01;96.76
71778;BME280;59609;52.430;4.668;2022-09-09T14:13:47;100694.16;;;17.65;99.11
71778;BME280;59609;52.430;4.668;2022-09-09T14:16:14;100693.31;;;17.38;99.67
71778;BME280;59609;52.430;4.668;2022-09-09T14:18:39;100699.97;;;17.37;100.00
71778;BME280;59609;52.430;4.668;2022-09-09T14:21:05;100708.31;;;17.24;100.00
71778;BME280;59609;52.430;4.668;2022-09-09T14:23:31;100711.94;;;17.31;100.00
71778;BME280;59609;52.430;4.668;2022-09-09T14:25:57;100709.38;;;17.30;100.00
71778;BME280;59609;52.430;4.668;2022-09-09T14:28:22;100706.59;;;17.23;100.00
71778;BME280;59609;52.430;4.668;2022-09-09T14:30:48;100718.81;;;17.29;100.00
71778;BME280;59609;52.430;4.668;2022-09-09T14:33:15;100713.22;;;17.29;100.00
71778;BME280;59609;52.430;4.668;2022-09-09T14:35:41;100708.53;;;17.23;100.00
71778;BME280;59609;52.430;4.668;2022-09-09T14:38:08;100714.94;;;17.23;100.00
71778;BME280;59609;52.430;4.668;2022-09-09T14:40:35;100712.16;;;17.10;100.00
71778;BME280;59609;52.430;4.668;2022-09-09T14:43:00;100725.84;;;17.12;100.00
71778;BME280;59609;52.430;4.668;2022-09-09T14:45:27;100714.50;;;17.07;100.00
71778;BME280;59609;52.430;4.668;2022-09-09T14:47:53;100718.16;;;17.14;100.00
71778;BME280;59609;52.430;4.668;2022-09-09T14:50:19;100732.06;;;17.07;100.00
71778;BME280;59609;52.430;4.668;2022-09-09T14:52:45;100722.63;;;17.02;100.00
71778;BME280;59609;52.430;4.668;2022-09-09T14:55:11;100732.28;;;17.12;100.00
71778;BME280;59609;52.430;4.668;2022-09-09T14:57:37;100718.34;;;17.06;100.00
71778;BME280;59609;52.430;4.668;2022-09-09T15:00:04;100720.69;;;16.95;100.00
71778;BME280;59609;52.430;4.668;2022-09-09T15:02:30;100730.34;;;16.99;100.00
71778;BME280;59609;52.430;4.668;2022-09-09T15:04:56;100726.06;;;16.97;100.00
71778;BME280;59609;52.430;4.668;2022-09-09T15:07:25;100706.13;;;16.80;100.00
71778;BME280;59609;52.430;4.668;2022-09-09T15:09:52;100717.91;;;16.89;100.00
71778;BME280;59609;52.430;4.668;2022-09-09T15:12:18;100710.84;;;16.86;100.00
71778;BME280;59609;52.430;4.668;2022-09-09T15:14:44;100717.03;;;16.82;100.00